sensor_id;sensor_type;location;lat;lon;timestamp;P1;durP1;ratioP1;P2;durP2;ratioP2
49051;SDS011;34866;48.670;18.260;2023-08-01T00:00:09;5.80;;;2.20;;
49051;SDS011;34866;48.670;18.260;2023-08-01T00:02:35;4.10;;;1.80;;
49051;SDS011;34866;48.670;18.260;2023-08-01T00:05:01;4.20;;;1.52;;
49051;SDS011;34866;48.670;18.260;2023-08-01T00:07:27;4.60;;;1.80;;
49051;SDS011;34866;48.670;18.260;2023-08-01T00:09:53;3.83;;;1.52;;
49051;SDS011;34866;48.670;18.260;2023-08-01T00:12:19;6.32;;;2.00;;
49051;SDS011;34866;48.670;18.260;2023-08-01T00:14:44;5.32;;;1.73;;
49051;SDS011;34866;48.670;18.260;2023-08-01T00:17:10;5.38;;;1.80;;
49051;SDS011;34866;48.670;18.260;2023-08-01T00:19:36;3.80;;;1.77;;
49051;SDS011;34866;48.670;18.260;2023-08-01T00:22:02;6.40;;;2.97;;
49051;SDS011;34866;48.670;18.260;2023-08-01T00:24:27;8.02;;;1.70;;
49051;SDS011;34866;48.670;18.260;2023-08-01T00:26:53;5.70;;;2.05;;
49051;SDS011;34866;48.670;18.260;2023-08-01T00:29:22;4.70;;;2.13;;
49051;SDS011;34866;48.670;18.260;2023-08-01T00:31:48;3.30;;;1.65;;
49051;SDS011;34866;48.670;18.260;2023-08-01T00:34:13;5.60;;;2.10;;
49051;SDS011;34866;48.670;18.260;2023-08-01T00:36:39;4.25;;;1.90;;
49051;SDS011;34866;48.670;18.260;2023-08-01T00:39:05;5.68;;;2.30;;
49051;SDS011;34866;48.670;18.260;2023-08-01T00:41:30;3.92;;;1.65;;
49051;SDS011;34866;48.670;18.260;2023-08-01T00:43:56;4.82;;;1.85;;
49051;SDS011;34866;48.670;18.260;2023-08-01T00:46:22;5.93;;;2.42;;
49051;SDS011;34866;48.670;18.260;2023-08-01T00:48:49;5.50;;;2.20;;
49051;SDS011;34866;48.670;18.260;2023-08-01T00:51:15;5.30;;;2.13;;
49051;SDS011;34866;48.670;18.260;2023-08-01T00:53:43;9.57;;;2.55;;
49051;SDS011;34866;48.670;18.260;2023-08-01T00:56:14;6.78;;;2.03;;
49051;SDS011;34866;48.670;18.260;2023-08-01T00:58:40;5.45;;;2.08;;
49051;SDS011;34866;48.670;18.260;2023-08-01T01:01:05;6.30;;;1.80;;
49051;SDS011;34866;48.670;18.260;2023-08-01T01:03:31;4.53;;;2.05;;
49051;SDS011;34866;48.670;18.260;2023-08-01T01:08:50;4.55;;;2.55;;
49051;SDS011;34866;48.670;18.260;2023-08-01T01:11:16;5.47;;;1.88;;
49051;SDS011;34866;48.670;18.260;2023-08-01T01:13:42;4.85;;;2.00;;
49051;SDS011;34866;48.670;18.260;2023-08-01T01:16:07;8.70;;;2.10;;
49051;SDS011;34866;48.670;18.260;2023-08-01T01:18:33;6.20;;;2.00;;
49051;SDS011;34866;48.670;18.260;2023-08-01T01:20:59;4.72;;;1.70;;
49051;SDS011;34866;48.670;18.260;2023-08-01T01:23:24;4.32;;;2.08;;
49051;SDS011;34866;48.670;18.260;2023-08-01T01:25:52;6.20;;;2.55;;
49051;SDS011;34866;48.670;18.260;2023-08-01T01:28:19;3.08;;;1.52;;
49051;SDS011;34866;48.670;18.260;2023-08-01T01:30:45;4.78;;;2.00;;
49051;SDS011;34866;48.670;18.260;2023-08-01T01:33:12;3.65;;;1.80;;
49051;SDS011;34866;48.670;18.260;2023-08-01T01:35:39;4.85;;;2.17;;
49051;SDS011;34866;48.670;18.260;2023-08-01T01:38:05;4.45;;;1.67;;
49051;SDS011;34866;48.670;18.260;2023-08-01T01:40:31;7.05;;;2.00;;
49051;SDS011;34866;48.670;18.260;2023-08-01T01:42:58;5.38;;;1.80;;
49051;SDS011;34866;48.670;18.260;2023-08-01T01:45:26;4.63;;;1.70;;
49051;SDS011;34866;48.670;18.260;2023-08-01T01:47:52;4.07;;;1.85;;
49051;SDS011;34866;48.670;18.260;2023-08-01T01:50:18;4.18;;;1.73;;
49051;SDS011;34866;48.670;18.260;2023-08-01T01:52:44;3.88;;;1.60;;
49051;SDS011;34866;48.670;18.260;2023-08-01T01:55:10;8.55;;;2.15;;
49051;SDS011;34866;48.670;18.260;2023-08-01T01:57:36;6.35;;;2.20;;
49051;SDS011;34866;48.670;18.260;2023-08-01T02:00:03;4.45;;;2.10;;
49051;SDS011;34866;48.670;18.260;2023-08-01T02:02:29;5.22;;;1.85;;
49051;SDS011;34866;48.670;18.260;2023-08-01T02:04:55;8.13;;;2.05;;
49051;SDS011;34866;48.670;18.260;2023-08-01T02:07:21;4.38;;;1.63;;
49051;SDS011;34866;48.670;18.260;2023-08-01T02:09:46;4.18;;;1.60;;
49051;SDS011;34866;48.670;18.260;2023-08-01T02:12:12;8.60;;;1.65;;
49051;SDS011;34866;48.670;18.260;2023-08-01T02:14:41;6.65;;;2.30;;
49051;SDS011;34866;48.670;18.260;2023-08-01T02:17:10;4.70;;;1.67;;
49051;SDS011;34866;48.670;18.260;2023-08-01T02:19:35;4.18;;;1.70;;
49051;SDS011;34866;48.670;18.260;2023-08-01T02:22:01;3.75;;;1.60;;
49051;SDS011;34866;48.670;18.260;2023-08-01T02:24:27;4.55;;;1.77;;
49051;SDS011;34866;48.670;18.260;2023-08-01T02:26:52;3.53;;;1.55;;
49051;SDS011;34866;48.670;18.260;2023-08-01T02:29:18;4.07;;;1.73;;
49051;SDS011;34866;48.670;18.260;2023-08-01T02:31:44;3.22;;;1.58;;
49051;SDS011;34866;48.670;18.260;2023-08-01T02:34:09;2.95;;;1.48;;
49051;SDS011;34866;48.670;18.260;2023-08-01T02:36:35;6.22;;;2.33;;
49051;SDS011;34866;48.670;18.260;2023-08-01T02:39:01;3.38;;;1.52;;
49051;SDS011;34866;48.670;18.260;2023-08-01T02:41:26;6.10;;;1.80;;
49051;SDS011;34866;48.670;18.260;2023-08-01T02:43:52;6.10;;;1.90;;
49051;SDS011;34866;48.670;18.260;2023-08-01T02:46:17;3.47;;;1.70;;
49051;SDS011;34866;48.670;18.260;2023-08-01T02:48:43;4.63;;;1.77;;
49051;SDS011;34866;48.670;18.260;2023-08-01T02:51:09;6.45;;;2.25;;
49051;SDS011;34866;48.670;18.260;2023-08-01T02:53:35;4.28;;;1.73;;
49051;SDS011;34866;48.670;18.260;2023-08-01T02:56:01;5.05;;;1.63;;
49051;SDS011;34866;48.670;18.260;2023-08-01T02:58:28;4.72;;;1.95;;
49051;SDS011;34866;48.670;18.260;2023-08-01T03:00:54;3.33;;;1.70;;
49051;SDS011;34866;48.670;18.260;2023-08-01T03:03:19;5.55;;;2.20;;
49051;SDS011;34866;48.670;18.260;2023-08-01T03:05:45;4.82;;;2.50;;
49051;SDS011;34866;48.670;18.260;2023-08-01T03:08:10;6.95;;;2.00;;
49051;SDS011;34866;48.670;18.260;2023-08-01T03:10:36;4.50;;;1.90;;
49051;SDS011;34866;48.670;18.260;2023-08-01T03:13:02;6.32;;;1.90;;
49051;SDS011;34866;48.670;18.260;2023-08-01T03:15:28;3.58;;;1.75;;
49051;SDS011;34866;48.670;18.260;2023-08-01T03:17:53;6.05;;;2.38;;
49051;SDS011;34866;48.670;18.260;2023-08-01T03:20:19;4.47;;;2.15;;
49051;SDS011;34866;48.670;18.260;2023-08-01T03:22:45;7.05;;;2.60;;
49051;SDS011;34866;48.670;18.260;2023-08-01T03:25:10;4.97;;;2.10;;
49051;SDS011;34866;48.670;18.260;2023-08-01T03:27:36;5.30;;;2.30;;
49051;SDS011;34866;48.670;18.260;2023-08-01T03:30:02;5.97;;;2.15;;
49051;SDS011;34866;48.670;18.260;2023-08-01T03:32:29;4.82;;;1.80;;
49051;SDS011;34866;48.670;18.260;2023-08-01T03:34:55;4.03;;;1.45;;
49051;SDS011;34866;48.670;18.260;2023-08-01T03:37:21;7.35;;;2.08;;
49051;SDS011;34866;48.670;18.260;2023-08-01T03:39:47;3.90;;;1.75;;
49051;SDS011;34866;48.670;18.260;2023-08-01T03:42:12;5.50;;;2.00;;
49051;SDS011;34866;48.670;18.260;2023-08-01T03:44:38;5.55;;;1.83;;
49051;SDS011;34866;48.670;18.260;2023-08-01T03:47:06;10.65;;;2.22;;
49051;SDS011;34866;48.670;18.260;2023-08-01T03:49:32;5.88;;;1.75;;
49051;SDS011;34866;48.670;18.260;2023-08-01T03:51:58;8.15;;;2.17;;
49051;SDS011;34866;48.670;18.260;2023-08-01T03:54:23;3.55;;;1.80;;
49051;SDS011;34866;48.670;18.260;2023-08-01T03:56:49;6.60;;;1.90;;
49051;SDS011;34866;48.670;18.260;2023-08-01T03:59:15;7.28;;;2.03;;
49051;SDS011;34866;48.670;18.260;2023-08-01T04:01:41;5.70;;;2.70;;
49051;SDS011;34866;48.670;18.260;2023-08-01T04:04:07;5.13;;;2.35;;
49051;SDS011;34866;48.670;18.260;2023-08-01T04:06:36;6.45;;;2.53;;
49051;SDS011;34866;48.670;18.260;2023-08-01T04:09:03;5.75;;;2.72;;
49051;SDS011;34866;48.670;18.260;2023-08-01T04:11:29;4.65;;;1.90;;
49051;SDS011;34866;48.670;18.260;2023-08-01T04:13:56;7.40;;;2.25;;
49051;SDS011;34866;48.670;18.260;2023-08-01T04:16:22;3.90;;;2.05;;
49051;SDS011;34866;48.670;18.260;2023-08-01T04:18:47;5.63;;;2.17;;
49051;SDS011;34866;48.670;18.260;2023-08-01T04:21:13;8.63;;;2.38;;
49051;SDS011;34866;48.670;18.260;2023-08-01T04:23:40;3.38;;;1.75;;
49051;SDS011;34866;48.670;18.260;2023-08-01T04:26:06;6.63;;;2.30;;
49051;SDS011;34866;48.670;18.260;2023-08-01T04:28:32;5.38;;;2.00;;
49051;SDS011;34866;48.670;18.260;2023-08-01T04:30:58;6.70;;;2.88;;
49051;SDS011;34866;48.670;18.260;2023-08-01T04:33:24;9.38;;;2.00;;
49051;SDS011;34866;48.670;18.260;2023-08-01T04:35:50;6.35;;;2.30;;
49051;SDS011;34866;48.670;18.260;2023-08-01T04:38:18;5.95;;;2.83;;
49051;SDS011;34866;48.670;18.260;2023-08-01T04:40:44;3.92;;;1.65;;
49051;SDS011;34866;48.670;18.260;2023-08-01T04:43:13;6.68;;;2.40;;
49051;SDS011;34866;48.670;18.260;2023-08-01T04:45:38;8.90;;;2.13;;
49051;SDS011;34866;48.670;18.260;2023-08-01T04:48:04;6.50;;;1.90;;
49051;SDS011;34866;48.670;18.260;2023-08-01T04:50:30;9.68;;;1.75;;
49051;SDS011;34866;48.670;18.260;2023-08-01T04:52:56;6.10;;;2.13;;
49051;SDS011;34866;48.670;18.260;2023-08-01T04:55:21;7.78;;;2.10;;
49051;SDS011;34866;48.670;18.260;2023-08-01T04:57:47;5.57;;;2.35;;
49051;SDS011;34866;48.670;18.260;2023-08-01T05:00:13;4.15;;;1.60;;
49051;SDS011;34866;48.670;18.260;2023-08-01T05:02:39;5.93;;;2.05;;
49051;SDS011;34866;48.670;18.260;2023-08-01T05:05:05;6.03;;;2.05;;
49051;SDS011;34866;48.670;18.260;2023-08-01T05:07:32;8.38;;;2.05;;
49051;SDS011;34866;48.670;18.260;2023-08-01T05:09:58;4.30;;;1.80;;
49051;SDS011;34866;48.670;18.260;2023-08-01T05:12:23;13.90;;;2.92;;
49051;SDS011;34866;48.670;18.260;2023-08-01T05:14:49;3.50;;;1.40;;
49051;SDS011;34866;48.670;18.260;2023-08-01T05:17:15;5.88;;;1.60;;
49051;SDS011;34866;48.670;18.260;2023-08-01T05:19:41;4.93;;;1.63;;
49051;SDS011;34866;48.670;18.260;2023-08-01T05:22:06;3.40;;;1.70;;
49051;SDS011;34866;48.670;18.260;2023-08-01T05:24:32;3.88;;;1.92;;
49051;SDS011;34866;48.670;18.260;2023-08-01T05:26:58;5.65;;;2.72;;
49051;SDS011;34866;48.670;18.260;2023-08-01T05:29:23;4.03;;;1.92;;
49051;SDS011;34866;48.670;18.260;2023-08-01T05:31:49;9.85;;;2.83;;
49051;SDS011;34866;48.670;18.260;2023-08-01T05:34:16;8.52;;;2.13;;
49051;SDS011;34866;48.670;18.260;2023-08-01T05:36:42;5.35;;;2.45;;
49051;SDS011;34866;48.670;18.260;2023-08-01T05:39:08;4.65;;;2.00;;
49051;SDS011;34866;48.670;18.260;2023-08-01T05:41:34;5.45;;;1.95;;
49051;SDS011;34866;48.670;18.260;2023-08-01T05:44:04;4.97;;;1.90;;
49051;SDS011;34866;48.670;18.260;2023-08-01T05:46:33;15.57;;;2.38;;
49051;SDS011;34866;48.670;18.260;2023-08-01T05:49:00;5.47;;;2.45;;
49051;SDS011;34866;48.670;18.260;2023-08-01T05:51:26;7.35;;;2.22;;
49051;SDS011;34866;48.670;18.260;2023-08-01T05:53:51;4.63;;;1.85;;
49051;SDS011;34866;48.670;18.260;2023-08-01T05:56:17;10.13;;;2.50;;
49051;SDS011;34866;48.670;18.260;2023-08-01T05:58:43;6.03;;;2.45;;
49051;SDS011;34866;48.670;18.260;2023-08-01T06:01:10;6.13;;;2.20;;
49051;SDS011;34866;48.670;18.260;2023-08-01T06:03:37;9.27;;;2.63;;
49051;SDS011;34866;48.670;18.260;2023-08-01T06:06:03;4.30;;;2.13;;
49051;SDS011;34866;48.670;18.260;2023-08-01T06:08:29;4.38;;;2.00;;
49051;SDS011;34866;48.670;18.260;2023-08-01T06:10:55;3.83;;;1.77;;
49051;SDS011;34866;48.670;18.260;2023-08-01T06:13:21;4.10;;;1.75;;
49051;SDS011;34866;48.670;18.260;2023-08-01T06:15:46;5.00;;;2.17;;
49051;SDS011;34866;48.670;18.260;2023-08-01T06:18:12;13.30;;;2.30;;
49051;SDS011;34866;48.670;18.260;2023-08-01T06:20:39;7.63;;;1.90;;
49051;SDS011;34866;48.670;18.260;2023-08-01T06:23:05;3.55;;;1.92;;
49051;SDS011;34866;48.670;18.260;2023-08-01T06:25:30;7.80;;;2.03;;
49051;SDS011;34866;48.670;18.260;2023-08-01T06:27:56;4.45;;;2.15;;
49051;SDS011;34866;48.670;18.260;2023-08-01T06:30:22;6.28;;;2.03;;
49051;SDS011;34866;48.670;18.260;2023-08-01T06:32:48;4.75;;;2.20;;
49051;SDS011;34866;48.670;18.260;2023-08-01T06:35:13;15.02;;;2.17;;
49051;SDS011;34866;48.670;18.260;2023-08-01T06:37:39;6.60;;;2.67;;
49051;SDS011;34866;48.670;18.260;2023-08-01T06:40:06;5.75;;;2.53;;
49051;SDS011;34866;48.670;18.260;2023-08-01T06:42:33;8.48;;;2.92;;
49051;SDS011;34866;48.670;18.260;2023-08-01T06:44:59;7.03;;;2.80;;
49051;SDS011;34866;48.670;18.260;2023-08-01T06:47:24;8.15;;;2.60;;
49051;SDS011;34866;48.670;18.260;2023-08-01T06:49:50;6.18;;;2.63;;
49051;SDS011;34866;48.670;18.260;2023-08-01T06:52:16;6.00;;;2.28;;
49051;SDS011;34866;48.670;18.260;2023-08-01T06:54:41;6.60;;;2.50;;
49051;SDS011;34866;48.670;18.260;2023-08-01T06:57:07;8.50;;;2.65;;
49051;SDS011;34866;48.670;18.260;2023-08-01T06:59:33;10.43;;;2.38;;
49051;SDS011;34866;48.670;18.260;2023-08-01T07:01:59;6.25;;;2.30;;
49051;SDS011;34866;48.670;18.260;2023-08-01T07:04:25;8.35;;;2.97;;
49051;SDS011;34866;48.670;18.260;2023-08-01T07:06:50;5.60;;;2.55;;
49051;SDS011;34866;48.670;18.260;2023-08-01T07:09:16;6.18;;;2.47;;
49051;SDS011;34866;48.670;18.260;2023-08-01T07:11:41;11.05;;;2.28;;
49051;SDS011;34866;48.670;18.260;2023-08-01T07:14:07;8.68;;;2.50;;
49051;SDS011;34866;48.670;18.260;2023-08-01T07:16:33;6.78;;;2.40;;
49051;SDS011;34866;48.670;18.260;2023-08-01T07:18:59;12.15;;;2.08;;
49051;SDS011;34866;48.670;18.260;2023-08-01T07:21:25;4.47;;;2.05;;
49051;SDS011;34866;48.670;18.260;2023-08-01T07:23:51;6.28;;;2.38;;
49051;SDS011;34866;48.670;18.260;2023-08-01T07:26:17;7.45;;;2.25;;
49051;SDS011;34866;48.670;18.260;2023-08-01T07:28:42;7.78;;;1.80;;
49051;SDS011;34866;48.670;18.260;2023-08-01T07:31:08;4.78;;;2.00;;
49051;SDS011;34866;48.670;18.260;2023-08-01T07:33:34;6.57;;;2.00;;
49051;SDS011;34866;48.670;18.260;2023-08-01T07:36:00;6.70;;;2.17;;
49051;SDS011;34866;48.670;18.260;2023-08-01T07:38:26;12.00;;;3.15;;
49051;SDS011;34866;48.670;18.260;2023-08-01T07:40:52;6.35;;;2.55;;
49051;SDS011;34866;48.670;18.260;2023-08-01T07:43:18;9.02;;;2.13;;
49051;SDS011;34866;48.670;18.260;2023-08-01T07:45:47;8.93;;;2.13;;
49051;SDS011;34866;48.670;18.260;2023-08-01T07:48:15;4.32;;;2.40;;
49051;SDS011;34866;48.670;18.260;2023-08-01T07:50:41;6.18;;;2.72;;
49051;SDS011;34866;48.670;18.260;2023-08-01T07:53:07;4.35;;;1.88;;
49051;SDS011;34866;48.670;18.260;2023-08-01T07:55:35;5.07;;;2.25;;
49051;SDS011;34866;48.670;18.260;2023-08-01T07:58:01;5.13;;;2.20;;
49051;SDS011;34866;48.670;18.260;2023-08-01T08:00:27;7.78;;;2.47;;
49051;SDS011;34866;48.670;18.260;2023-08-01T08:02:53;4.70;;;2.08;;
49051;SDS011;34866;48.670;18.260;2023-08-01T08:05:25;5.30;;;2.08;;
49051;SDS011;34866;48.670;18.260;2023-08-01T08:07:52;4.38;;;2.05;;
49051;SDS011;34866;48.670;18.260;2023-08-01T08:10:19;9.13;;;3.55;;
49051;SDS011;34866;48.670;18.260;2023-08-01T08:12:44;6.90;;;3.20;;
49051;SDS011;34866;48.670;18.260;2023-08-01T08:15:10;9.77;;;2.95;;
49051;SDS011;34866;48.670;18.260;2023-08-01T08:17:39;5.78;;;2.90;;
49051;SDS011;34866;48.670;18.260;2023-08-01T08:20:08;7.53;;;3.00;;
49051;SDS011;34866;48.670;18.260;2023-08-01T08:22:34;7.13;;;2.40;;
49051;SDS011;34866;48.670;18.260;2023-08-01T08:24:59;8.07;;;3.33;;
49051;SDS011;34866;48.670;18.260;2023-08-01T08:27:45;4.30;;;2.10;;
49051;SDS011;34866;48.670;18.260;2023-08-01T08:30:12;6.38;;;2.42;;
49051;SDS011;34866;48.670;18.260;2023-08-01T08:32:38;5.65;;;2.22;;
49051;SDS011;34866;48.670;18.260;2023-08-01T08:35:03;5.10;;;2.28;;
49051;SDS011;34866;48.670;18.260;2023-08-01T08:37:35;6.43;;;2.53;;
49051;SDS011;34866;48.670;18.260;2023-08-01T08:40:05;4.97;;;2.30;;
49051;SDS011;34866;48.670;18.260;2023-08-01T08:42:32;7.68;;;2.30;;
49051;SDS011;34866;48.670;18.260;2023-08-01T08:44:59;4.53;;;1.92;;
49051;SDS011;34866;48.670;18.260;2023-08-01T08:47:26;7.70;;;2.17;;
49051;SDS011;34866;48.670;18.260;2023-08-01T08:49:55;6.57;;;2.28;;
49051;SDS011;34866;48.670;18.260;2023-08-01T08:52:25;6.82;;;2.22;;
49051;SDS011;34866;48.670;18.260;2023-08-01T08:54:52;6.47;;;2.67;;
49051;SDS011;34866;48.670;18.260;2023-08-01T08:57:19;4.68;;;2.28;;
49051;SDS011;34866;48.670;18.260;2023-08-01T08:59:46;5.13;;;2.20;;
49051;SDS011;34866;48.670;18.260;2023-08-01T09:02:13;8.80;;;2.42;;
49051;SDS011;34866;48.670;18.260;2023-08-01T09:04:47;4.15;;;1.85;;
49051;SDS011;34866;48.670;18.260;2023-08-01T09:07:13;8.02;;;1.92;;
49051;SDS011;34866;48.670;18.260;2023-08-01T09:09:43;5.88;;;2.40;;
49051;SDS011;34866;48.670;18.260;2023-08-01T09:12:09;3.97;;;1.85;;
49051;SDS011;34866;48.670;18.260;2023-08-01T09:14:34;7.40;;;2.33;;
49051;SDS011;34866;48.670;18.260;2023-08-01T09:17:07;6.07;;;2.22;;
49051;SDS011;34866;48.670;18.260;2023-08-01T09:19:34;6.65;;;2.60;;
49051;SDS011;34866;48.670;18.260;2023-08-01T09:22:01;7.88;;;2.47;;
49051;SDS011;34866;48.670;18.260;2023-08-01T09:24:30;6.30;;;2.17;;
49051;SDS011;34866;48.670;18.260;2023-08-01T09:27:02;5.82;;;2.50;;
49051;SDS011;34866;48.670;18.260;2023-08-01T09:29:33;11.02;;;2.47;;
49051;SDS011;34866;48.670;18.260;2023-08-01T09:31:59;6.60;;;2.30;;
49051;SDS011;34866;48.670;18.260;2023-08-01T09:34:25;4.97;;;2.45;;
49051;SDS011;34866;48.670;18.260;2023-08-01T09:36:58;4.40;;;2.10;;
49051;SDS011;34866;48.670;18.260;2023-08-01T09:39:26;5.05;;;2.42;;
49051;SDS011;34866;48.670;18.260;2023-08-01T09:41:57;9.20;;;2.70;;
49051;SDS011;34866;48.670;18.260;2023-08-01T09:44:27;6.05;;;2.55;;
49051;SDS011;34866;48.670;18.260;2023-08-01T09:46:55;6.93;;;2.47;;
49051;SDS011;34866;48.670;18.260;2023-08-01T09:49:26;5.97;;;2.88;;
49051;SDS011;34866;48.670;18.260;2023-08-01T09:51:54;10.45;;;2.35;;
49051;SDS011;34866;48.670;18.260;2023-08-01T09:54:20;5.63;;;2.42;;
49051;SDS011;34866;48.670;18.260;2023-08-01T09:56:58;4.90;;;2.40;;
49051;SDS011;34866;48.670;18.260;2023-08-01T09:59:45;9.63;;;3.28;;
49051;SDS011;34866;48.670;18.260;2023-08-01T10:02:17;8.88;;;2.67;;
49051;SDS011;34866;48.670;18.260;2023-08-01T10:08:11;6.90;;;2.75;;
49051;SDS011;34866;48.670;18.260;2023-08-01T10:11:07;8.95;;;2.72;;
49051;SDS011;34866;48.670;18.260;2023-08-01T10:13:35;10.98;;;3.70;;
49051;SDS011;34866;48.670;18.260;2023-08-01T10:16:01;5.57;;;2.72;;
49051;SDS011;34866;48.670;18.260;2023-08-01T10:18:30;7.10;;;3.20;;
49051;SDS011;34866;48.670;18.260;2023-08-01T10:20:56;14.50;;;3.42;;
49051;SDS011;34866;48.670;18.260;2023-08-01T10:23:23;9.32;;;3.30;;
49051;SDS011;34866;48.670;18.260;2023-08-01T10:25:50;6.32;;;3.30;;
49051;SDS011;34866;48.670;18.260;2023-08-01T10:28:17;7.15;;;3.53;;
49051;SDS011;34866;48.670;18.260;2023-08-01T10:30:49;10.18;;;3.72;;
49051;SDS011;34866;48.670;18.260;2023-08-01T10:33:44;6.63;;;3.78;;
49051;SDS011;34866;48.670;18.260;2023-08-01T10:36:25;7.30;;;3.45;;
49051;SDS011;34866;48.670;18.260;2023-08-01T10:38:57;8.35;;;3.28;;
49051;SDS011;34866;48.670;18.260;2023-08-01T10:41:47;5.65;;;3.05;;
49051;SDS011;34866;48.670;18.260;2023-08-01T10:44:25;7.18;;;3.92;;
49051;SDS011;34866;48.670;18.260;2023-08-01T10:47:08;7.75;;;3.50;;
49051;SDS011;34866;48.670;18.260;2023-08-01T10:50:27;10.00;;;3.85;;
49051;SDS011;34866;48.670;18.260;2023-08-01T10:53:00;11.23;;;3.40;;
49051;SDS011;34866;48.670;18.260;2023-08-01T10:55:42;8.45;;;3.38;;
49051;SDS011;34866;48.670;18.260;2023-08-01T10:58:27;11.30;;;3.55;;
49051;SDS011;34866;48.670;18.260;2023-08-01T11:01:58;9.80;;;3.50;;
49051;SDS011;34866;48.670;18.260;2023-08-01T11:05:19;11.60;;;3.70;;
49051;SDS011;34866;48.670;18.260;2023-08-01T11:11:58;7.05;;;3.67;;
49051;SDS011;34866;48.670;18.260;2023-08-01T11:14:31;8.15;;;4.05;;
49051;SDS011;34866;48.670;18.260;2023-08-01T11:17:30;8.63;;;3.08;;
49051;SDS011;34866;48.670;18.260;2023-08-01T11:20:43;7.13;;;3.90;;
49051;SDS011;34866;48.670;18.260;2023-08-01T11:27:43;8.65;;;3.53;;
49051;SDS011;34866;48.670;18.260;2023-08-01T11:33:57;10.10;;;3.92;;
49051;SDS011;34866;48.670;18.260;2023-08-01T11:43:55;9.10;;;2.75;;
49051;SDS011;34866;48.670;18.260;2023-08-01T11:49:53;11.15;;;2.92;;
49051;SDS011;34866;48.670;18.260;2023-08-01T12:01:14;5.53;;;2.75;;
49051;SDS011;34866;48.670;18.260;2023-08-01T12:04:11;7.90;;;3.35;;
49051;SDS011;34866;48.670;18.260;2023-08-01T12:06:41;5.68;;;2.53;;
49051;SDS011;34866;48.670;18.260;2023-08-01T12:09:11;6.50;;;3.13;;
49051;SDS011;34866;48.670;18.260;2023-08-01T12:11:41;6.38;;;3.10;;
49051;SDS011;34866;48.670;18.260;2023-08-01T12:14:14;6.43;;;3.50;;
49051;SDS011;34866;48.670;18.260;2023-08-01T12:16:46;7.90;;;3.08;;
49051;SDS011;34866;48.670;18.260;2023-08-01T12:19:31;6.85;;;3.10;;
49051;SDS011;34866;48.670;18.260;2023-08-01T12:22:15;8.35;;;3.08;;
49051;SDS011;34866;48.670;18.260;2023-08-01T12:24:41;5.60;;;2.90;;
49051;SDS011;34866;48.670;18.260;2023-08-01T12:27:07;6.13;;;2.80;;
49051;SDS011;34866;48.670;18.260;2023-08-01T12:33:17;5.70;;;3.05;;
49051;SDS011;34866;48.670;18.260;2023-08-01T12:40:07;6.10;;;2.42;;
49051;SDS011;34866;48.670;18.260;2023-08-01T12:46:38;5.35;;;2.65;;
49051;SDS011;34866;48.670;18.260;2023-08-01T12:49:44;6.70;;;2.65;;
49051;SDS011;34866;48.670;18.260;2023-08-01T12:52:33;5.97;;;2.53;;
49051;SDS011;34866;48.670;18.260;2023-08-01T12:55:08;5.45;;;2.47;;
49051;SDS011;34866;48.670;18.260;2023-08-01T13:01:15;5.10;;;2.25;;
49051;SDS011;34866;48.670;18.260;2023-08-01T13:07:50;5.35;;;2.35;;
49051;SDS011;34866;48.670;18.260;2023-08-01T13:10:51;5.20;;;2.60;;
49051;SDS011;34866;48.670;18.260;2023-08-01T13:13:19;5.85;;;2.50;;
49051;SDS011;34866;48.670;18.260;2023-08-01T13:16:09;5.38;;;2.67;;
49051;SDS011;34866;48.670;18.260;2023-08-01T13:21:22;5.93;;;2.70;;
49051;SDS011;34866;48.670;18.260;2023-08-01T13:27:34;11.05;;;2.50;;
49051;SDS011;34866;48.670;18.260;2023-08-01T13:36:43;7.60;;;2.97;;
49051;SDS011;34866;48.670;18.260;2023-08-01T13:39:11;6.68;;;3.75;;
49051;SDS011;34866;48.670;18.260;2023-08-01T13:41:39;6.20;;;2.97;;
49051;SDS011;34866;48.670;18.260;2023-08-01T13:44:29;10.23;;;2.88;;
49051;SDS011;34866;48.670;18.260;2023-08-01T13:56:43;9.65;;;2.92;;
49051;SDS011;34866;48.670;18.260;2023-08-01T14:18:15;6.60;;;2.90;;
49051;SDS011;34866;48.670;18.260;2023-08-01T14:21:35;5.78;;;2.78;;
49051;SDS011;34866;48.670;18.260;2023-08-01T14:24:02;6.60;;;2.70;;
49051;SDS011;34866;48.670;18.260;2023-08-01T14:32:44;8.43;;;3.20;;
49051;SDS011;34866;48.670;18.260;2023-08-01T14:36:16;14.90;;;3.45;;
49051;SDS011;34866;48.670;18.260;2023-08-01T14:46:26;6.25;;;3.28;;
49051;SDS011;34866;48.670;18.260;2023-08-01T14:49:16;6.30;;;2.53;;
49051;SDS011;34866;48.670;18.260;2023-08-01T14:52:09;6.53;;;2.80;;
49051;SDS011;34866;48.670;18.260;2023-08-01T14:54:57;6.18;;;2.72;;
49051;SDS011;34866;48.670;18.260;2023-08-01T14:57:46;5.82;;;2.67;;
49051;SDS011;34866;48.670;18.260;2023-08-01T15:03:24;7.65;;;2.90;;
49051;SDS011;34866;48.670;18.260;2023-08-01T15:05:50;5.95;;;2.95;;
49051;SDS011;34866;48.670;18.260;2023-08-01T15:08:22;5.82;;;2.88;;
49051;SDS011;34866;48.670;18.260;2023-08-01T15:11:04;7.80;;;2.85;;
49051;SDS011;34866;48.670;18.260;2023-08-01T15:13:52;4.63;;;2.25;;
49051;SDS011;34866;48.670;18.260;2023-08-01T15:25:50;8.48;;;2.72;;
49051;SDS011;34866;48.670;18.260;2023-08-01T15:32:07;7.10;;;3.10;;
49051;SDS011;34866;48.670;18.260;2023-08-01T15:38:36;5.57;;;2.63;;
49051;SDS011;34866;48.670;18.260;2023-08-01T15:41:37;7.60;;;3.28;;
49051;SDS011;34866;48.670;18.260;2023-08-01T15:44:35;7.25;;;3.08;;
49051;SDS011;34866;48.670;18.260;2023-08-01T15:47:43;8.38;;;3.60;;
49051;SDS011;34866;48.670;18.260;2023-08-01T19:33:11;8.00;;;3.80;;
49051;SDS011;34866;48.670;18.260;2023-08-01T19:36:17;10.10;;;4.35;;
49051;SDS011;34866;48.670;18.260;2023-08-01T19:39:16;11.07;;;4.25;;
49051;SDS011;34866;48.670;18.260;2023-08-01T20:01:03;7.78;;;4.25;;
49051;SDS011;34866;48.670;18.260;2023-08-01T20:46:00;8.93;;;3.92;;
